Time;durP1;ratioP1;P1;durP2;ratioP2;P2;SDS_P1;SDS_P2;PMS_P1;PMS_P2;Temp;Humidity;BMP_temperature;BMP_pressure;BME280_temperature;BME280_humidity;BME280_pressure;Samples;Min_cycle;Max_cycle;Signal;HPM_P1;HPM_P2
2023/05/01 00:01:47;;;;;;;4.60;4.20;;;;;;;12.95;71.09;95015.13;4981700;28;20233;-64
2023/05/01 00:04:14;;;;;;;5.88;5.47;;;;;;;12.87;71.26;95017.16;4981093;28;20374;-66
2023/05/01 00:06:42;;;;;;;6.43;4.65;;;;;;;12.86;71.47;95021.47;4986172;28;20295;-64
2023/05/01 00:09:09;;;;;;;4.88;4.50;;;;;;;12.86;71.59;95018.91;4974536;28;21048;-63
2023/05/01 00:11:36;;;;;;;4.88;4.57;;;;;;;12.85;72.17;95014.72;4978245;28;20196;-64
2023/05/01 00:14:03;;;;;;;4.63;4.30;;;;;;;12.86;71.73;95018.09;4981336;28;20211;-65
2023/05/01 00:16:30;;;;;;;5.43;5.03;;;;;;;12.79;71.93;95014.97;4984015;28;20312;-63
2023/05/01 00:18:56;;;;;;;4.95;4.65;;;;;;;12.74;72.49;95014.34;4984098;28;20365;-63
2023/05/01 00:21:23;;;;;;;6.57;4.93;;;;;;;12.72;72.04;95018.66;4981225;28;20339;-62
2023/05/01 00:23:51;;;;;;;6.53;4.47;;;;;;;12.66;72.63;95018.91;4980798;28;20333;-64
2023/05/01 00:26:18;;;;;;;5.03;4.63;;;;;;;12.66;72.47;95008.72;4984971;28;20328;-65
2023/05/01 00:28:45;;;;;;;5.13;4.60;;;;;;;12.69;72.46;95018.78;4978365;28;20212;-64
2023/05/01 00:31:12;;;;;;;7.80;4.90;;;;;;;12.63;72.58;95011.41;4975199;28;20208;-64
2023/05/01 00:33:39;;;;;;;5.18;4.88;;;;;;;12.58;72.92;95013.34;4980978;28;20231;-64
2023/05/01 00:36:06;;;;;;;5.50;5.05;;;;;;;12.54;72.72;95032.19;4982196;28;21091;-63
2023/05/01 00:38:33;;;;;;;4.78;4.38;;;;;;;12.53;72.78;95033.91;4983318;28;22318;-64
2023/05/01 00:41:01;;;;;;;8.88;4.75;;;;;;;12.49;72.66;95032.38;4978965;28;20413;-63
2023/05/01 00:43:27;;;;;;;5.30;4.80;;;;;;;12.55;72.52;95037.22;4982435;28;20322;-62
2023/05/01 00:45:54;;;;;;;5.38;5.07;;;;;;;12.66;72.50;95036.75;4984235;28;20298;-60
2023/05/01 00:48:21;;;;;;;4.82;4.53;;;;;;;12.42;72.99;95020.78;4980975;28;20290;-64
2023/05/01 00:50:49;;;;;;;5.20;4.80;;;;;;;12.45;73.14;95037.66;4971904;28;20255;-64
2023/05/01 00:53:17;;;;;;;9.75;4.22;;;;;;;12.39;73.17;95041.28;4970793;28;20230;-63
2023/05/01 00:55:45;;;;;;;5.63;5.13;;;;;;;12.33;72.91;95046.66;4972070;28;21715;-63
2023/05/01 00:58:16;;;;;;;5.20;4.90;;;;;;;12.13;73.59;95044.88;4975404;28;20211;-64
2023/05/01 01:00:43;;;;;;;5.60;5.20;;;;;;;12.06;73.79;95043.50;4967138;28;20350;-64
2023/05/01 01:03:10;;;;;;;6.22;5.43;;;;;;;12.11;73.96;95051.78;4970275;28;20358;-64
2023/05/01 01:05:42;;;;;;;5.57;4.90;;;;;;;12.05;73.87;95049.47;4972611;28;20246;-63
2023/05/01 01:08:19;;;;;;;6.65;5.68;;;;;;;12.09;74.19;95052.72;4969764;28;20295;-63
2023/05/01 01:10:54;;;;;;;6.10;5.60;;;;;;;12.11;74.58;95046.69;4968981;28;20211;-63
2023/05/01 01:13:28;;;;;;;6.80;6.22;;;;;;;12.08;74.30;95045.97;4966439;28;20196;-64
2023/05/01 01:16:04;;;;;;;5.80;5.32;;;;;;;11.92;75.21;95056.75;4970390;28;20307;-63
2023/05/01 01:18:40;;;;;;;5.97;5.57;;;;;;;12.03;75.58;95056.34;4974136;28;20210;-63
2023/05/01 01:21:12;;;;;;;6.97;6.35;;;;;;;12.05;75.84;95052.03;4968711;28;20302;-63
2023/05/01 01:24:12;;;;;;;5.55;5.25;;;;;;;12.04;75.93;95060.56;4964499;28;20325;-63
2023/05/01 01:27:11;;;;;;;5.97;5.57;;;;;;;11.88;76.35;95059.47;4971751;28;20359;-64
2023/05/01 01:30:12;;;;;;;6.43;5.93;;;;;;;11.83;76.18;95066.47;4972121;28;20217;-64
2023/05/01 01:33:00;;;;;;;5.63;5.13;;;;;;;11.73;76.46;95070.22;4941932;28;20206;-64
2023/05/01 01:35:31;;;;;;;8.00;6.95;;;;;;;11.78;76.45;95076.00;4971192;28;20219;-64
2023/05/01 01:38:04;;;;;;;5.68;4.93;;;;;;;11.69;76.97;95073.75;4972354;28;20688;-64
2023/05/01 01:40:36;;;;;;;5.85;5.38;;;;;;;11.78;76.22;95070.91;4970904;28;20298;-64
2023/05/01 01:43:07;;;;;;;7.85;5.93;;;;;;;11.80;76.21;95064.03;4967871;28;20255;-64
2023/05/01 01:45:39;;;;;;;5.88;5.47;;;;;;;11.77;76.12;95066.72;4974909;28;20678;-63
2023/05/01 01:48:09;;;;;;;6.00;5.60;;;;;;;11.74;76.10;95067.63;4973535;28;20204;-65
2023/05/01 01:50:39;;;;;;;6.15;5.75;;;;;;;11.62;76.51;95070.63;4965465;28;20353;-64
2023/05/01 01:53:08;;;;;;;6.78;6.28;;;;;;;11.65;76.59;95059.47;4967556;28;20227;-63
2023/05/01 01:55:38;;;;;;;6.82;5.43;;;;;;;11.64;76.65;95065.47;4973054;28;20259;-63
2023/05/01 01:58:06;;;;;;;6.45;5.90;;;;;;;11.66;76.69;95061.16;4975817;28;20224;-64
2023/05/01 02:00:35;;;;;;;7.22;6.03;;;;;;;11.55;77.18;95064.94;4972204;28;20754;-63
2023/05/01 02:03:03;;;;;;;8.90;6.53;;;;;;;11.49;77.26;95062.63;4972339;28;20313;-63
2023/05/01 02:05:32;;;;;;;5.82;5.43;;;;;;;11.61;76.56;95055.41;4970579;28;21003;-63
2023/05/01 02:08:02;;;;;;;7.63;5.65;;;;;;;11.57;77.13;95057.25;4968910;28;20207;-63
2023/05/01 02:10:29;;;;;;;5.60;5.22;;;;;;;11.54;77.17;95053.09;4966886;28;20219;-65
2023/05/01 02:12:58;;;;;;;7.95;5.68;;;;;;;11.42;77.36;95051.00;4971569;28;20291;-65
2023/05/01 02:15:27;;;;;;;7.10;6.38;;;;;;;11.39;77.26;95051.09;4969874;28;20319;-64
2023/05/01 02:17:55;;;;;;;6.93;6.43;;;;;;;11.24;77.03;95036.41;4971069;28;20793;-64
2023/05/01 02:20:22;;;;;;;6.55;6.05;;;;;;;11.34;77.06;95057.28;4971871;28;20299;-64
2023/05/01 02:22:51;;;;;;;7.03;5.82;;;;;;;11.40;76.84;95050.22;4973225;28;20374;-64
2023/05/01 02:25:20;;;;;;;7.57;5.43;;;;;;;11.42;76.69;95060.34;4973543;28;20745;-64
2023/05/01 02:27:50;;;;;;;5.85;5.40;;;;;;;11.24;77.31;95037.25;4975280;28;20236;-64
2023/05/01 02:30:17;;;;;;;6.68;5.18;;;;;;;11.12;77.94;95047.03;4973910;28;20236;-64
2023/05/01 02:32:44;;;;;;;7.80;5.78;;;;;;;11.21;77.98;95057.69;4977523;28;20211;-64
2023/05/01 02:35:11;;;;;;;6.13;5.63;;;;;;;11.21;77.96;95061.97;4975338;28;20206;-64
2023/05/01 02:37:39;;;;;;;5.90;5.50;;;;;;;11.13;78.18;95058.88;4977034;28;22268;-64
2023/05/01 02:40:07;;;;;;;6.07;5.53;;;;;;;11.16;78.14;95063.84;4974508;28;20207;-64
2023/05/01 02:42:37;;;;;;;6.03;5.70;;;;;;;11.09;78.38;95058.16;4975467;28;20220;-64
2023/05/01 02:45:07;;;;;;;6.72;6.22;;;;;;;11.13;78.33;95058.88;4976116;28;20366;-63
2023/05/01 02:47:38;;;;;;;7.38;6.60;;;;;;;11.05;78.73;95064.22;4975159;28;20291;-63
2023/05/01 02:50:07;;;;;;;6.15;5.72;;;;;;;10.96;78.36;95051.00;4975465;28;20311;-63
2023/05/01 02:52:36;;;;;;;6.60;6.13;;;;;;;11.01;79.05;95059.31;4964503;28;20374;-64
2023/05/01 02:55:04;;;;;;;7.03;6.28;;;;;;;11.05;78.51;95068.47;4974139;28;20331;-63
2023/05/01 02:57:33;;;;;;;8.68;6.18;;;;;;;11.12;78.17;95068.22;4975353;28;21633;-65
2023/05/01 03:00:01;;;;;;;6.15;5.75;;;;;;;10.99;78.49;95061.06;4974505;28;20282;-64
2023/05/01 03:02:28;;;;;;;10.88;7.78;;;;;;;10.76;79.06;95047.44;4976807;28;20310;-64
2023/05/01 03:04:55;;;;;;;11.13;7.35;;;;;;;10.86;78.64;95063.22;4974078;28;20290;-65
2023/05/01 03:07:22;;;;;;;7.65;6.57;;;;;;;10.89;78.16;95060.53;4973572;28;20204;-64
2023/05/01 03:09:48;;;;;;;6.72;6.03;;;;;;;10.91;78.23;95066.41;4973566;28;20303;-64
2023/05/01 03:12:15;;;;;;;8.77;6.30;;;;;;;11.11;78.12;95069.09;4973814;28;20266;-64
2023/05/01 03:14:42;;;;;;;7.45;6.88;;;;;;;11.22;77.70;95078.88;4972394;28;20212;-63
2023/05/01 03:17:10;;;;;;;8.30;7.43;;;;;;;11.06;78.17;95080.31;4975602;28;20209;-65
2023/05/01 03:19:37;;;;;;;8.18;7.43;;;;;;;10.82;79.05;95074.38;4976180;28;20284;-64
2023/05/01 03:22:04;;;;;;;7.70;6.88;;;;;;;10.68;79.97;95077.38;4976791;28;20271;-63
2023/05/01 03:24:30;;;;;;;8.68;7.28;;;;;;;10.81;79.25;95080.34;4973286;28;20236;-64
2023/05/01 03:26:58;;;;;;;9.25;7.43;;;;;;;10.82;79.46;95082.81;4973350;28;20303;-65
2023/05/01 03:29:24;;;;;;;8.27;7.57;;;;;;;10.71;79.72;95078.97;4973692;28;20209;-63
2023/05/01 03:31:51;;;;;;;12.35;7.65;;;;;;;10.66;80.33;95081.66;4973587;28;20295;-64
2023/05/01 03:34:19;;;;;;;9.18;8.25;;;;;;;10.66;80.18;95089.28;4974686;28;20675;-64
2023/05/01 03:36:46;;;;;;;7.78;7.20;;;;;;;10.75;79.58;95090.72;4972000;28;20294;-65
2023/05/01 03:39:13;;;;;;;8.07;7.38;;;;;;;10.76;79.73;95094.91;4972515;28;20260;-64
2023/05/01 03:41:39;;;;;;;6.63;5.95;;;;;;;10.80;79.85;95089.69;4974762;28;20212;-64
2023/05/01 03:44:06;;;;;;;7.35;6.85;;;;;;;10.79;79.98;95090.56;4975584;28;20803;-64
2023/05/01 03:46:33;;;;;;;8.25;7.45;;;;;;;10.99;79.49;95104.28;4975724;28;20354;-64
2023/05/01 03:49:00;;;;;;;7.38;6.85;;;;;;;11.03;79.52;95103.31;4975816;28;20212;-64
2023/05/01 03:51:28;;;;;;;8.60;6.30;;;;;;;11.21;79.28;95097.56;4973026;28;20712;-64
2023/05/01 03:53:57;;;;;;;6.38;5.93;;;;;;;11.10;79.89;95102.22;4974537;28;20696;-64
2023/05/01 03:56:24;;;;;;;6.85;6.40;;;;;;;11.12;80.00;95103.81;4970894;28;20716;-64
2023/05/01 03:58:51;;;;;;;7.60;7.05;;;;;;;11.16;79.98;95112.16;4975073;28;20239;-65
2023/05/01 04:01:18;;;;;;;7.00;6.45;;;;;;;11.25;79.89;95124.56;4974492;28;20814;-64
2023/05/01 04:03:45;;;;;;;6.82;6.32;;;;;;;11.33;79.44;95117.50;4974947;28;20219;-65
2023/05/01 04:06:13;;;;;;;6.95;6.35;;;;;;;11.33;79.41;95117.50;4973691;28;20214;-64
2023/05/01 04:08:41;;;;;;;7.82;7.25;;;;;;;11.50;78.99;95114.34;4973946;28;21342;-64
2023/05/01 04:11:08;;;;;;;7.75;7.03;;;;;;;12.17;77.79;95110.13;4975725;28;20208;-64
2023/05/01 04:13:34;;;;;;;8.88;6.90;;;;;;;13.02;75.64;95107.53;4974146;28;20200;-64
2023/05/01 04:16:01;;;;;;;6.28;5.68;;;;;;;13.93;72.50;95108.59;4973007;28;20287;-64
2023/05/01 04:18:28;;;;;;;8.80;6.50;;;;;;;14.77;68.86;95105.47;4974276;28;20300;-65
2023/05/01 04:20:55;;;;;;;7.60;6.25;;;;;;;15.57;64.22;95102.31;4975406;28;20336;-65
2023/05/01 04:23:21;;;;;;;9.73;5.82;;;;;;;16.25;60.79;95105.47;4974984;28;22273;-64
2023/05/01 04:25:50;;;;;;;8.45;6.55;;;;;;;16.81;58.58;95107.44;4971702;28;20266;-66
2023/05/01 04:28:16;;;;;;;6.43;5.93;;;;;;;17.22;56.95;95109.34;4973818;28;20204;-67
2023/05/01 04:30:43;;;;;;;8.88;6.82;;;;;;;17.61;55.93;95101.00;4972744;28;20212;-63
2023/05/01 04:33:11;;;;;;;7.90;7.00;;;;;;;18.13;54.29;95116.66;4973827;28;20307;-65
2023/05/01 04:35:38;;;;;;;8.77;7.40;;;;;;;18.59;52.85;95108.59;4973005;28;20283;-66
2023/05/01 04:38:05;;;;;;;9.18;8.35;;;;;;;19.26;51.08;95104.25;4974179;28;20422;-65
2023/05/01 04:40:31;;;;;;;12.45;7.30;;;;;;;20.15;48.55;95109.28;4974850;28;20910;-66
2023/05/01 04:43:00;;;;;;;9.02;7.88;;;;;;;21.44;45.79;95106.78;4974671;28;20323;-65
2023/05/01 04:45:27;;;;;;;9.00;8.20;;;;;;;22.40;43.66;95103.56;4970377;28;20208;-65
2023/05/01 04:47:53;;;;;;;8.73;7.97;;;;;;;22.60;42.41;95103.75;4969774;28;20403;-66
2023/05/01 04:50:20;;;;;;;9.18;8.23;;;;;;;22.01;43.16;95106.72;4973035;28;20252;-65
2023/05/01 04:52:47;;;;;;;9.75;8.70;;;;;;;21.39;44.28;95104.53;4975738;28;20222;-65
2023/05/01 04:55:14;;;;;;;9.70;8.75;;;;;;;21.10;45.17;95093.75;4973486;28;20380;-66
2023/05/01 04:57:40;;;;;;;9.82;8.20;;;;;;;20.93;45.81;95107.94;4974389;28;20258;-66
2023/05/01 05:00:10;;;;;;;10.40;9.40;;;;;;;20.71;46.04;95105.28;4974490;28;20313;-65
2023/05/01 05:02:37;;;;;;;10.98;9.65;;;;;;;20.78;46.12;95119.41;4974080;28;20235;-65
2023/05/01 05:05:03;;;;;;;9.57;8.65;;;;;;;20.91;45.61;95114.97;4971794;28;20980;-65
2023/05/01 05:07:30;;;;;;;15.93;10.05;;;;;;;20.77;46.21;95122.91;4971696;28;20296;-65
2023/05/01 05:09:57;;;;;;;9.18;8.40;;;;;;;20.60;46.41;95125.88;4974163;28;20205;-65
2023/05/01 05:12:24;;;;;;;8.32;7.80;;;;;;;20.45;46.80;95132.97;4970733;28;20307;-66
2023/05/01 05:14:51;;;;;;;8.63;7.75;;;;;;;20.27;47.31;95132.50;4973470;28;20722;-65
2023/05/01 05:17:19;;;;;;;8.23;7.50;;;;;;;20.27;47.30;95126.50;4972311;28;20213;-64
2023/05/01 05:19:46;;;;;;;8.50;7.63;;;;;;;20.43;47.17;95139.19;4963749;28;20932;-64
2023/05/01 05:22:13;;;;;;;8.48;6.60;;;;;;;20.75;46.77;95145.44;4971675;28;20522;-66
2023/05/01 05:24:39;;;;;;;8.05;7.45;;;;;;;20.80;46.52;95134.75;4972791;28;20228;-64
2023/05/01 05:27:07;;;;;;;8.48;7.72;;;;;;;21.79;44.78;95148.06;4972511;28;21005;-65
2023/05/01 05:29:33;;;;;;;9.20;6.18;;;;;;;23.37;40.77;95151.00;4972692;28;20907;-66
2023/05/01 05:32:00;;;;;;;7.43;6.72;;;;;;;24.79;37.79;95142.28;4969518;28;20303;-65
2023/05/01 05:34:29;;;;;;;8.80;5.85;;;;;;;26.09;35.70;95134.72;4974135;28;20311;-65
2023/05/01 05:36:55;;;;;;;10.85;7.25;;;;;;;27.76;32.77;95133.25;4971954;28;20336;-68
2023/05/01 05:39:22;;;;;;;6.85;6.20;;;;;;;30.16;29.39;95132.34;4970472;28;20232;-66
2023/05/01 05:41:49;;;;;;;6.00;5.50;;;;;;;32.63;25.77;95135.28;4969908;28;20247;-67
2023/05/01 05:44:16;;;;;;;5.90;5.47;;;;;;;33.97;23.98;95118.69;4964755;28;20810;-66
2023/05/01 05:46:42;;;;;;;6.15;5.35;;;;;;;35.47;22.52;95132.66;4971207;28;20203;-66
2023/05/01 05:49:09;;;;;;;6.22;5.72;;;;;;;36.53;20.92;95129.88;4973289;28;21176;-67
2023/05/01 05:51:37;;;;;;;7.20;6.60;;;;;;;37.18;20.20;95128.72;4971948;28;20233;-67
2023/05/01 05:54:04;;;;;;;7.75;7.13;;;;;;;36.86;20.15;95132.41;4971441;28;20384;-67
2023/05/01 05:56:31;;;;;;;8.50;7.70;;;;;;;35.98;21.07;95134.66;4973449;28;20764;-67
2023/05/01 05:59:01;;;;;;;7.80;7.10;;;;;;;36.14;20.87;95136.88;4972437;28;20475;-67
2023/05/01 06:01:28;;;;;;;6.63;6.22;;;;;;;37.31;19.86;95136.63;4971153;28;20338;-67
2023/05/01 06:03:55;;;;;;;6.75;6.10;;;;;;;38.67;18.65;95133.09;4973432;28;20354;-68
2023/05/01 06:06:22;;;;;;;7.10;6.65;;;;;;;40.06;17.63;95132.69;4966064;28;20207;-67
2023/05/01 06:08:50;;;;;;;6.13;5.60;;;;;;;41.24;16.33;95142.00;4971636;28;20235;-67
2023/05/01 06:11:17;;;;;;;6.75;5.82;;;;;;;42.22;15.61;95137.19;4965603;28;20218;-67
2023/05/01 06:13:44;;;;;;;6.25;5.75;;;;;;;42.85;15.38;95141.19;4971804;28;20200;-69
2023/05/01 06:16:10;;;;;;;5.95;5.43;;;;;;;43.26;15.02;95137.94;4971638;28;20707;-68
2023/05/01 06:18:37;;;;;;;6.07;5.68;;;;;;;43.59;14.86;95150.22;4972369;28;20633;-69
2023/05/01 06:21:04;;;;;;;9.63;6.60;;;;;;;43.28;14.91;95140.34;4968516;28;20337;-67
2023/05/01 06:23:32;;;;;;;6.18;5.78;;;;;;;43.51;15.06;95140.00;4970629;28;20224;-68
2023/05/01 06:26:00;;;;;;;5.70;5.20;;;;;;;42.66;15.37;95138.03;4970660;28;20653;-69
2023/05/01 06:28:27;;;;;;;5.93;5.43;;;;;;;43.19;15.26;95131.13;4970947;28;20239;-67
2023/05/01 06:30:54;;;;;;;6.13;5.75;;;;;;;43.38;15.07;95143.09;4970376;28;20294;-67
2023/05/01 06:33:21;;;;;;;6.38;5.78;;;;;;;43.68;14.63;95138.03;4966846;28;20208;-67
2023/05/01 06:35:48;;;;;;;5.85;5.50;;;;;;;44.23;14.46;95144.84;4971224;28;20653;-68
2023/05/01 06:38:15;;;;;;;6.38;5.97;;;;;;;43.84;14.42;95144.28;4974624;28;20270;-69
2023/05/01 06:40:42;;;;;;;6.18;5.55;;;;;;;43.62;14.78;95146.28;4973481;28;20250;-69
2023/05/01 06:43:10;;;;;;;6.30;5.90;;;;;;;44.20;14.30;95140.00;4973762;28;20307;-68
2023/05/01 06:45:38;;;;;;;6.20;5.53;;;;;;;44.21;14.25;95138.13;4971014;28;20371;-68
2023/05/01 06:48:05;;;;;;;9.55;8.70;;;;;;;44.42;14.28;95140.69;4973888;28;20232;-71
2023/05/01 06:50:32;;;;;;;6.88;6.47;;;;;;;44.80;13.73;95136.03;4971001;28;20335;-68
2023/05/01 06:53:01;;;;;;;6.30;5.70;;;;;;;44.89;14.20;95139.81;4972690;28;20307;-69
2023/05/01 06:55:30;;;;;;;5.22;4.82;;;;;;;45.39;14.12;95144.50;4971264;28;20397;-68
2023/05/01 06:57:57;;;;;;;6.43;5.90;;;;;;;45.79;13.36;95132.16;4974142;28;20492;-69
2023/05/01 07:00:25;;;;;;;7.45;6.90;;;;;;;46.08;13.29;95135.09;4973238;28;20200;-67
2023/05/01 07:02:51;;;;;;;7.50;7.03;;;;;;;45.22;13.61;95145.81;4971297;28;20240;-67
2023/05/01 07:05:18;;;;;;;6.68;6.28;;;;;;;45.28;13.73;95148.25;4971547;28;20299;-69
2023/05/01 07:07:45;;;;;;;7.50;5.57;;;;;;;45.95;13.34;95147.22;4973799;28;20300;-69
2023/05/01 07:10:12;;;;;;;5.30;5.00;;;;;;;46.10;13.30;95143.69;4977326;28;20232;-69
2023/05/01 07:12:39;;;;;;;5.55;5.05;;;;;;;46.58;13.21;95138.72;4977080;28;20283;-67
2023/05/01 07:15:07;;;;;;;5.15;4.72;;;;;;;46.68;12.92;95134.16;4970618;28;20235;-68
2023/05/01 07:17:35;;;;;;;8.38;7.70;;;;;;;46.61;12.46;95149.75;4976513;28;20208;-69
2023/05/01 07:20:03;;;;;;;7.32;5.55;;;;;;;45.89;13.09;95147.47;4973213;28;20957;-68
2023/05/01 07:22:30;;;;;;;5.53;4.93;;;;;;;45.72;13.55;95153.94;4975180;28;20210;-69
2023/05/01 07:24:57;;;;;;;5.93;4.38;;;;;;;45.31;13.96;95153.06;4970885;28;20277;-69
2023/05/01 07:27:24;;;;;;;6.35;5.80;;;;;;;44.34;14.24;95154.53;4974595;28;20302;-67
2023/05/01 07:29:51;;;;;;;5.28;4.65;;;;;;;44.03;14.79;95142.88;4975044;28;20891;-68
2023/05/01 07:32:17;;;;;;;16.55;11.50;;;;;;;44.88;13.97;95148.13;4974354;28;22114;-67
2023/05/01 07:34:45;;;;;;;15.13;13.75;;;;;;;45.61;13.75;95149.63;4974186;28;20318;-66
2023/05/01 07:37:12;;;;;;;21.15;19.13;;;;;;;46.36;13.25;95147.94;4969801;28;20208;-69
2023/05/01 07:39:39;;;;;;;9.18;8.57;;;;;;;46.85;12.80;95152.63;4976360;28;20291;-67
2023/05/01 07:42:06;;;;;;;5.20;4.90;;;;;;;46.96;12.40;95145.31;4974317;28;20240;-67
2023/05/01 07:44:33;;;;;;;10.65;9.73;;;;;;;47.07;12.32;95147.69;4975347;28;20203;-67
2023/05/01 07:47:03;;;;;;;6.00;5.07;;;;;;;46.97;12.47;95142.34;4974249;28;20231;-68
2023/05/01 07:49:35;;;;;;;19.00;17.55;;;;;;;47.29;12.35;95144.56;4975565;28;20230;-67
2023/05/01 07:52:04;;;;;;;8.40;7.70;;;;;;;47.07;12.59;95146.88;4976052;28;20399;-66
2023/05/01 07:54:31;;;;;;;6.03;5.53;;;;;;;48.08;11.67;95140.72;4972937;28;20227;-67
2023/05/01 07:56:57;;;;;;;9.90;9.30;;;;;;;48.08;11.50;95145.31;4972752;28;20209;-67
2023/05/01 07:59:24;;;;;;;7.28;6.85;;;;;;;47.24;12.16;95141.13;4971605;28;20745;-67
2023/05/01 08:01:51;;;;;;;6.22;5.88;;;;;;;47.98;11.93;95137.34;4973004;28;20319;-67
2023/05/01 08:04:18;;;;;;;9.85;9.00;;;;;;;48.09;11.84;95141.53;4973522;28;20322;-69
2023/05/01 08:06:44;;;;;;;9.13;8.27;;;;;;;47.79;11.92;95139.13;4970799;28;20295;-68
2023/05/01 08:09:13;;;;;;;6.35;4.85;;;;;;;48.40;11.60;95136.66;4967809;28;20211;-68
2023/05/01 08:11:39;;;;;;;4.68;4.25;;;;;;;48.24;11.24;95140.59;4972505;28;20321;-66
2023/05/01 08:14:06;;;;;;;4.75;4.40;;;;;;;47.21;11.74;95144.38;4966430;28;20339;-66
2023/05/01 08:16:33;;;;;;;10.23;4.28;;;;;;;45.04;12.96;95142.50;4976591;28;20401;-66
2023/05/01 08:19:00;;;;;;;4.93;4.63;;;;;;;44.47;13.22;95142.59;4972192;28;20243;-67
2023/05/01 08:21:27;;;;;;;4.05;3.78;;;;;;;45.26;12.93;95131.59;4978159;28;20932;-67
2023/05/01 08:23:55;;;;;;;4.38;4.00;;;;;;;46.08;12.67;95135.91;4977072;28;20378;-68
2023/05/01 08:26:23;;;;;;;5.30;4.30;;;;;;;44.71;13.31;95141.06;4973728;28;20832;-66
2023/05/01 08:28:50;;;;;;;4.85;4.43;;;;;;;43.72;13.70;95139.13;4973402;28;20207;-67
2023/05/01 08:31:18;;;;;;;4.63;4.25;;;;;;;43.48;14.06;95135.16;4973963;28;20200;-68
2023/05/01 08:33:45;;;;;;;4.50;4.10;;;;;;;44.62;13.95;95134.59;4971151;28;20687;-67
2023/05/01 08:36:11;;;;;;;7.00;3.90;;;;;;;45.02;13.35;95128.59;4970280;28;20295;-67
2023/05/01 08:38:38;;;;;;;4.32;3.40;;;;;;;46.23;12.36;95131.56;4970581;28;20207;-68
2023/05/01 08:41:05;;;;;;;3.58;3.38;;;;;;;45.40;11.92;95131.88;4963290;28;20333;-67
2023/05/01 08:43:34;;;;;;;4.50;3.30;;;;;;;43.09;13.86;95126.47;4970769;28;20293;-68
2023/05/01 08:46:01;;;;;;;5.10;4.70;;;;;;;42.40;13.96;95116.34;4956662;28;20677;-70
2023/05/01 08:48:29;;;;;;;3.88;3.13;;;;;;;41.41;14.11;95129.50;4971706;28;20200;-65
2023/05/01 08:50:58;;;;;;;3.63;3.22;;;;;;;41.98;14.38;95115.19;4968951;28;20232;-69
2023/05/01 08:53:26;;;;;;;3.63;3.33;;;;;;;42.53;14.07;95123.19;4976851;28;20200;-67
2023/05/01 08:55:55;;;;;;;5.22;4.93;;;;;;;42.84;13.93;95119.00;4974785;28;20370;-70
2023/05/01 08:58:24;;;;;;;5.18;4.82;;;;;;;42.34;14.68;95114.63;4972028;28;20208;-68
2023/05/01 09:00:55;;;;;;;6.07;3.42;;;;;;;38.07;16.94;95122.31;4975284;28;20230;-68
2023/05/01 09:03:22;;;;;;;3.58;3.38;;;;;;;37.34;17.18;95119.47;4967210;28;20675;-71
2023/05/01 09:05:50;;;;;;;5.05;3.97;;;;;;;35.86;19.10;95126.56;4974757;28;20338;-67
2023/05/01 09:08:16;;;;;;;4.10;3.50;;;;;;;36.04;19.03;95118.78;4969031;28;20347;-71
2023/05/01 09:10:47;;;;;;;4.13;3.78;;;;;;;36.66;18.76;95127.16;4969329;28;20231;-69
2023/05/01 09:13:14;;;;;;;4.68;2.65;;;;;;;35.86;18.77;95136.34;4973084;28;20745;-72
2023/05/01 09:15:41;;;;;;;3.22;2.70;;;;;;;33.64;21.37;95124.56;4966121;28;20725;-67
2023/05/01 09:18:11;;;;;;;3.25;2.78;;;;;;;32.09;22.46;95127.69;4973447;28;20254;-68
2023/05/01 09:20:38;;;;;;;3.17;3.00;;;;;;;32.74;22.16;95133.00;4970216;28;20745;-67
2023/05/01 09:23:05;;;;;;;8.02;2.55;;;;;;;32.79;22.18;95125.38;4969786;28;20327;-66
2023/05/01 09:25:32;;;;;;;2.67;2.53;;;;;;;32.04;22.75;95130.06;4972456;28;20208;-67
2023/05/01 09:27:59;;;;;;;3.90;3.45;;;;;;;28.92;26.58;95137.00;4968050;28;20347;-67
2023/05/01 09:30:33;;;;;;;4.85;4.32;;;;;;;28.68;27.57;95126.47;4965526;28;20224;-67
2023/05/01 09:33:12;;;;;;;7.38;2.92;;;;;;;28.62;27.28;95129.72;4970838;28;20207;-70
2023/05/01 09:35:50;;;;;;;3.70;3.03;;;;;;;28.57;27.88;95137.22;4969262;28;20692;-66
2023/05/01 09:38:21;;;;;;;6.90;5.15;;;;;;;27.72;29.47;95134.53;4972604;28;20617;-67
2023/05/01 09:40:48;;;;;;;3.70;3.45;;;;;;;27.27;30.43;95139.06;4973630;28;20286;-66
2023/05/01 09:43:24;;;;;;;3.17;2.72;;;;;;;26.23;32.56;95130.81;4972453;28;20304;-68
2023/05/01 09:46:02;;;;;;;3.25;2.95;;;;;;;25.08;34.34;95132.75;4972708;28;20210;-64
2023/05/01 09:48:30;;;;;;;3.33;3.00;;;;;;;24.57;34.41;95139.94;4970230;28;20219;-67
2023/05/01 09:50:58;;;;;;;2.90;2.65;;;;;;;24.11;34.72;95141.31;4960938;28;20301;-65
2023/05/01 09:53:37;;;;;;;3.08;2.78;;;;;;;23.61;35.62;95135.22;4971883;28;20653;-72
2023/05/01 09:56:05;;;;;;;4.10;2.60;;;;;;;23.11;36.78;95142.78;4972602;28;20246;-73
2023/05/01 09:58:32;;;;;;;4.07;2.92;;;;;;;22.61;38.15;95136.47;4971073;28;20211;-66
2023/05/01 10:00:59;;;;;;;3.85;3.55;;;;;;;22.90;38.75;95135.00;4970011;28;20294;-66
2023/05/01 10:03:25;;;;;;;2.28;2.15;;;;;;;23.06;35.77;95132.78;4973314;28;20200;-67
2023/05/01 10:05:55;;;;;;;2.80;2.60;;;;;;;22.85;37.23;95134.53;4971688;28;20349;-68
2023/05/01 10:08:23;;;;;;;2.95;2.75;;;;;;;22.63;37.38;95129.41;4973630;28;20211;-67
2023/05/01 10:11:01;;;;;;;4.47;3.40;;;;;;;22.73;37.95;95125.13;4972893;28;20208;-70
2023/05/01 10:13:28;;;;;;;2.40;2.20;;;;;;;22.43;36.23;95132.75;4968872;28;20235;-70
2023/05/01 10:15:55;;;;;;;2.08;1.98;;;;;;;22.23;35.98;95129.97;4984924;22;20348;-66
2023/05/01 10:18:22;;;;;;;14.45;11.32;;;;;;;22.21;37.07;95123.28;4977435;28;20330;-69
2023/05/01 10:20:50;;;;;;;3.13;2.90;;;;;;;22.54;40.62;95124.94;4979753;28;20211;-66
2023/05/01 10:23:18;;;;;;;3.63;3.42;;;;;;;22.92;40.67;95120.13;4980555;28;20286;-66
2023/05/01 10:25:51;;;;;;;13.35;12.07;;;;;;;23.53;39.73;95120.28;4980292;28;20203;-65
2023/05/01 10:28:18;;;;;;;4.57;3.92;;;;;;;24.14;38.17;95101.28;4976669;28;20315;-66
2023/05/01 10:30:46;;;;;;;3.40;2.88;;;;;;;24.31;38.09;95111.88;4979033;28;20345;-65
2023/05/01 10:33:13;;;;;;;2.78;2.58;;;;;;;24.50;36.49;95118.88;4972319;28;20294;-68
2023/05/01 10:35:43;;;;;;;2.97;2.78;;;;;;;24.58;36.65;95126.00;4971576;28;20475;-68
2023/05/01 10:38:19;;;;;;;2.90;2.70;;;;;;;24.38;36.37;95105.19;4980448;28;20754;-64
2023/05/01 10:40:51;;;;;;;4.07;3.83;;;;;;;24.32;36.58;95121.31;4980496;28;20214;-67
2023/05/01 10:43:24;;;;;;;2.88;2.58;;;;;;;24.11;36.72;95119.72;4983918;28;20204;-64
2023/05/01 10:45:52;;;;;;;2.45;2.35;;;;;;;24.17;36.31;95101.03;4982355;28;20204;-65
2023/05/01 10:48:55;;;;;;;5.88;5.40;;;;;;;24.22;34.46;95117.84;4980503;28;20448;-67
2023/05/01 10:51:23;;;;;;;4.22;3.85;;;;;;;23.71;35.79;95113.56;4972432;28;20233;-66
2023/05/01 10:54:25;;;;;;;3.35;2.55;;;;;;;23.42;34.73;95117.75;4987461;28;20235;-70
2023/05/01 10:56:55;;;;;;;5.75;3.95;;;;;;;22.88;35.07;95118.75;4986078;28;20294;-65
2023/05/01 10:59:21;;;;;;;2.60;2.50;;;;;;;22.14;36.29;95122.09;4988060;28;20212;-66
2023/05/01 11:01:50;;;;;;;3.72;2.60;;;;;;;21.65;37.45;95118.91;4988732;28;20215;-63
2023/05/01 11:04:54;;;;;;;3.88;3.47;;;;;;;21.65;38.22;95105.97;4988050;28;20330;-65
2023/05/01 11:07:22;;;;;;;6.68;5.97;;;;;;;21.69;38.95;95104.81;4910468;28;20222;-66
2023/05/01 11:09:53;;;;;;;5.20;4.82;;;;;;;21.82;38.66;95114.19;4971691;28;20215;-65
2023/05/01 11:12:51;;;;;;;9.23;3.50;;;;;;;22.35;37.98;95110.88;4985130;28;21291;-64
2023/05/01 11:15:29;;;;;;;4.78;3.78;;;;;;;22.87;36.14;95101.53;4987792;28;20223;-65
2023/05/01 11:17:56;;;;;;;2.88;2.67;;;;;;;23.40;35.89;95104.09;4984188;28;20207;-66
2023/05/01 11:20:48;;;;;;;2.60;2.40;;;;;;;23.76;35.65;95107.16;4986843;28;20449;-65
2023/05/01 11:23:19;;;;;;;2.20;2.00;;;;;;;23.50;35.17;95114.53;4985418;28;21127;-67
2023/05/01 11:25:49;;;;;;;2.53;2.33;;;;;;;23.23;35.62;95112.44;4985711;28;20290;-68
2023/05/01 11:28:23;;;;;;;2.70;2.50;;;;;;;23.36;34.90;95115.66;4984955;28;20230;-64
2023/05/01 11:30:50;;;;;;;1.98;1.88;;;;;;;22.96;33.32;95116.34;4963232;28;20257;-67
2023/05/01 11:33:26;;;;;;;2.05;1.70;;;;;;;22.74;34.57;95108.66;4975108;28;20325;-67
2023/05/01 11:36:01;;;;;;;1.92;1.83;;;;;;;22.48;34.70;95115.09;4967254;28;20419;-66
2023/05/01 11:38:28;;;;;;;1.70;1.60;;;;;;;22.27;34.75;95118.41;4972761;28;20333;-66
2023/05/01 11:40:58;;;;;;;7.07;2.45;;;;;;;22.11;36.38;95112.81;4971733;28;20236;-67